sensor_id;sensor_type;location;lat;lon;timestamp;pressure;altitude;pressure_sealevel;temperature;humidity
31337;BME280;22846;42.654;23.314;2023-02-13T00:01:24;96176.38;;;23.01;46.79
31337;BME280;22846;42.654;23.314;2023-02-13T00:03:49;96170.94;;;23.01;46.98
31337;BME280;22846;42.654;23.314;2023-02-13T00:06:14;96167.84;;;22.99;46.67
31337;BME280;22846;42.654;23.314;2023-02-13T00:08:40;96181.44;;;22.95;46.65
31337;BME280;22846;42.654;23.314;2023-02-13T00:11:05;96168.63;;;22.89;46.83
31337;BME280;22846;42.654;23.314;2023-02-13T00:13:32;96178.72;;;22.95;46.85
31337;BME280;22846;42.654;23.314;2023-02-13T00:16:00;96181.44;;;22.95;46.69
31337;BME280;22846;42.654;23.314;2023-02-13T00:18:27;96178.34;;;22.93;46.42
31337;BME280;22846;42.654;23.314;2023-02-13T00:21:01;96182.25;;;22.92;46.76
31337;BME280;22846;42.654;23.314;2023-02-13T00:23:28;96187.69;;;22.92;46.83
31337;BME280;22846;42.654;23.314;2023-02-13T00:25:54;96181.84;;;22.90;46.53
31337;BME280;22846;42.654;23.314;2023-02-13T00:28:20;96188.88;;;22.91;46.68
31337;BME280;22846;42.654;23.314;2023-02-13T00:30:45;96186.16;;;22.88;46.41
31337;BME280;22846;42.654;23.314;2023-02-13T00:33:11;96185.34;;;22.87;46.57
31337;BME280;22846;42.654;23.314;2023-02-13T00:35:36;96187.72;;;22.89;46.93
31337;BME280;22846;42.654;23.314;2023-02-13T00:38:02;96193.53;;;22.87;46.52
31337;BME280;22846;42.654;23.314;2023-02-13T00:40:27;96193.94;;;22.86;46.73
31337;BME280;22846;42.654;23.314;2023-02-13T00:42:52;96175.25;;;22.81;46.82
31337;BME280;22846;42.654;23.314;2023-02-13T00:45:18;96180.66;;;22.77;46.54
31337;BME280;22846;42.654;23.314;2023-02-13T00:47:43;96195.09;;;22.85;46.77
31337;BME280;22846;42.654;23.314;2023-02-13T00:50:09;96190.41;;;22.82;46.77
31337;BME280;22846;42.654;23.314;2023-02-13T00:52:34;96192.75;;;22.83;46.83
31337;BME280;22846;42.654;23.314;2023-02-13T00:55:00;96206.00;;;22.81;46.94
31337;BME280;22846;42.654;23.314;2023-02-13T00:57:25;96197.06;;;22.81;46.80
31337;BME280;22846;42.654;23.314;2023-02-13T00:59:51;96198.97;;;22.77;46.81
31337;BME280;22846;42.654;23.314;2023-02-13T01:02:16;96203.66;;;22.76;47.00
31337;BME280;22846;42.654;23.314;2023-02-13T01:04:41;96189.66;;;22.74;46.55
31337;BME280;22846;42.654;23.314;2023-02-13T01:07:07;96206.41;;;22.76;46.87
31337;BME280;22846;42.654;23.314;2023-02-13T01:09:32;96199.75;;;22.77;46.57
31337;BME280;22846;42.654;23.314;2023-02-13T01:11:58;96201.31;;;22.71;46.97
31337;BME280;22846;42.654;23.314;2023-02-13T01:14:24;96201.31;;;22.75;46.94
31337;BME280;22846;42.654;23.314;2023-02-13T01:16:49;96192.38;;;22.74;46.63
31337;BME280;22846;42.654;23.314;2023-02-13T01:19:14;96192.38;;;22.71;46.62
31337;BME280;22846;42.654;23.314;2023-02-13T01:21:41;96202.88;;;22.72;46.64
31337;BME280;22846;42.654;23.314;2023-02-13T01:24:07;96200.16;;;22.72;47.05
31337;BME280;22846;42.654;23.314;2023-02-13T01:26:32;96206.75;;;22.71;47.17
31337;BME280;22846;42.654;23.314;2023-02-13T01:28:58;96210.66;;;22.70;46.75
31337;BME280;22846;42.654;23.314;2023-02-13T01:31:24;96197.44;;;22.69;47.13
31337;BME280;22846;42.654;23.314;2023-02-13T01:33:50;96202.09;;;22.68;46.70
31337;BME280;22846;42.654;23.314;2023-02-13T01:36:15;96211.44;;;22.67;46.79
31337;BME280;22846;42.654;23.314;2023-02-13T01:38:41;96211.44;;;22.67;46.76
31337;BME280;22846;42.654;23.314;2023-02-13T01:41:08;96213.38;;;22.67;46.94
31337;BME280;22846;42.654;23.314;2023-02-13T01:46:08;96221.94;;;22.65;46.80
31337;BME280;22846;42.654;23.314;2023-02-13T01:48:35;96213.38;;;22.63;46.92
31337;BME280;22846;42.654;23.314;2023-02-13T01:51:05;96211.44;;;22.64;46.98
31337;BME280;22846;42.654;23.314;2023-02-13T01:56:04;96214.53;;;22.62;47.07
31337;BME280;22846;42.654;23.314;2023-02-13T01:58:35;96228.97;;;22.63;46.59
31337;BME280;22846;42.654;23.314;2023-02-13T02:01:02;96229.31;;;22.61;47.00
31337;BME280;22846;42.654;23.314;2023-02-13T02:03:33;96218.44;;;22.61;46.94
31337;BME280;22846;42.654;23.314;2023-02-13T02:06:00;96207.13;;;22.52;46.96
31337;BME280;22846;42.654;23.314;2023-02-13T02:08:26;96212.19;;;22.50;47.20
31337;BME280;22846;42.654;23.314;2023-02-13T02:10:54;96228.16;;;22.59;47.04
31337;BME280;22846;42.654;23.314;2023-02-13T02:13:21;96230.13;;;22.58;47.02
31337;BME280;22846;42.654;23.314;2023-02-13T02:15:47;96214.94;;;22.57;47.35
31337;BME280;22846;42.654;23.314;2023-02-13T02:18:22;96218.81;;;22.56;46.98
31337;BME280;22846;42.654;23.314;2023-02-13T02:37:56;96216.84;;;22.50;47.19
31337;BME280;22846;42.654;23.314;2023-02-13T02:45:47;96223.84;;;22.47;46.89
31337;BME280;22846;42.654;23.314;2023-02-13T02:48:32;96215.66;;;22.33;46.77
31337;BME280;22846;42.654;23.314;2023-02-13T02:51:24;96237.88;;;22.46;47.07
31337;BME280;22846;42.654;23.314;2023-02-13T02:54:06;96229.28;;;22.40;47.23
31337;BME280;22846;42.654;23.314;2023-02-13T02:56:57;96240.97;;;22.44;46.92
31337;BME280;22846;42.654;23.314;2023-02-13T02:59:26;96246.81;;;22.43;47.02
31337;BME280;22846;42.654;23.314;2023-02-13T03:02:12;96252.25;;;22.43;46.75
31337;BME280;22846;42.654;23.314;2023-02-13T03:04:57;96248.75;;;22.42;46.78
31337;BME280;22846;42.654;23.314;2023-02-13T03:07:43;96239.81;;;22.42;46.97
31337;BME280;22846;42.654;23.314;2023-02-13T03:10:24;96239.03;;;22.41;46.93
31337;BME280;22846;42.654;23.314;2023-02-13T03:13:30;96240.97;;;22.41;47.02
31337;BME280;22846;42.654;23.314;2023-02-13T03:15:58;96247.56;;;22.40;47.07
31337;BME280;22846;42.654;23.314;2023-02-13T03:18:51;96223.00;;;22.26;47.09
31337;BME280;22846;42.654;23.314;2023-02-13T03:27:30;96248.34;;;22.37;46.75
31337;BME280;22846;42.654;23.314;2023-02-13T03:36:03;96246.41;;;22.34;47.05
31337;BME280;22846;42.654;23.314;2023-02-13T03:41:26;96248.34;;;22.33;46.75
31337;BME280;22846;42.654;23.314;2023-02-13T03:46:41;96251.84;;;22.34;46.92
31337;BME280;22846;42.654;23.314;2023-02-13T03:49:16;96250.28;;;22.33;47.12
31337;BME280;22846;42.654;23.314;2023-02-13T03:52:05;96244.06;;;22.32;46.87
31337;BME280;22846;42.654;23.314;2023-02-13T03:54:46;96242.09;;;22.33;47.02
31337;BME280;22846;42.654;23.314;2023-02-13T03:57:35;96239.78;;;22.31;47.20
31337;BME280;22846;42.654;23.314;2023-02-13T04:00:23;96242.06;;;22.29;47.04
31337;BME280;22846;42.654;23.314;2023-02-13T04:02:59;96239.34;;;22.29;47.28
31337;BME280;22846;42.654;23.314;2023-02-13T04:05:28;96239.34;;;22.29;47.04
31337;BME280;22846;42.654;23.314;2023-02-13T04:07:56;96236.66;;;22.33;47.16
31337;BME280;22846;42.654;23.314;2023-02-13T04:10:22;96235.56;;;22.58;46.94
31337;BME280;22846;42.654;23.314;2023-02-13T04:12:59;96235.97;;;22.88;45.56
31337;BME280;22846;42.654;23.314;2023-02-13T04:15:58;96247.69;;;23.13;45.68
31337;BME280;22846;42.654;23.314;2023-02-13T04:18:29;96243.41;;;23.29;45.21
31337;BME280;22846;42.654;23.314;2023-02-13T04:20:56;96244.94;;;23.48;44.82
31337;BME280;22846;42.654;23.314;2023-02-13T04:23:21;96242.97;;;23.62;44.74
31337;BME280;22846;42.654;23.314;2023-02-13T04:25:51;96227.38;;;23.70;44.62
31337;BME280;22846;42.654;23.314;2023-02-13T04:28:18;96239.81;;;23.92;44.00
31337;BME280;22846;42.654;23.314;2023-02-13T04:30:43;96242.53;;;24.02;43.68
31337;BME280;22846;42.654;23.314;2023-02-13T04:33:09;96243.66;;;24.11;43.60
31337;BME280;22846;42.654;23.314;2023-02-13T04:35:34;96248.31;;;24.18;43.55
31337;BME280;22846;42.654;23.314;2023-02-13T04:38:00;96239.28;;;24.24;43.28
31337;BME280;22846;42.654;23.314;2023-02-13T04:40:25;96238.47;;;24.34;43.38
31337;BME280;22846;42.654;23.314;2023-02-13T04:42:51;96231.81;;;24.35;42.96
31337;BME280;22846;42.654;23.314;2023-02-13T04:45:16;96244.25;;;24.50;43.00
31337;BME280;22846;42.654;23.314;2023-02-13T04:47:42;96237.59;;;24.58;42.91
31337;BME280;22846;42.654;23.314;2023-02-13T04:50:08;96237.56;;;24.62;42.39
31337;BME280;22846;42.654;23.314;2023-02-13T04:52:33;96231.28;;;24.65;42.99
31337;BME280;22846;42.654;23.314;2023-02-13T04:54:59;96239.09;;;24.70;42.89
31337;BME280;22846;42.654;23.314;2023-02-13T04:57:24;96243.75;;;24.69;42.78
31337;BME280;22846;42.654;23.314;2023-02-13T04:59:50;96244.09;;;24.78;42.49
31337;BME280;22846;42.654;23.314;2023-02-13T05:02:15;96258.13;;;24.83;42.38
31337;BME280;22846;42.654;23.314;2023-02-13T05:04:41;96262.47;;;24.77;41.59
31337;BME280;22846;42.654;23.314;2023-02-13T05:07:06;96258.59;;;24.68;42.33
31337;BME280;22846;42.654;23.314;2023-02-13T05:09:31;96261.41;;;24.58;41.79
31337;BME280;22846;42.654;23.314;2023-02-13T05:11:57;96260.28;;;24.52;42.69
31337;BME280;22846;42.654;23.314;2023-02-13T05:14:22;96259.50;;;24.51;42.79
31337;BME280;22846;42.654;23.314;2023-02-13T05:16:48;96264.16;;;24.58;42.82
31337;BME280;22846;42.654;23.314;2023-02-13T05:19:16;96270.75;;;24.60;42.50
31337;BME280;22846;42.654;23.314;2023-02-13T05:21:42;96267.25;;;24.63;42.71
31337;BME280;22846;42.654;23.314;2023-02-13T05:24:26;96270.72;;;24.67;42.29
31337;BME280;22846;42.654;23.314;2023-02-13T05:26:51;96274.63;;;24.73;42.36
31337;BME280;22846;42.654;23.314;2023-02-13T05:29:17;96271.06;;;24.76;42.98
31337;BME280;22846;42.654;23.314;2023-02-13T05:31:55;96280.03;;;24.80;42.44
31337;BME280;22846;42.654;23.314;2023-02-13T05:34:21;96273.38;;;24.84;42.42
31337;BME280;22846;42.654;23.314;2023-02-13T05:36:47;96269.03;;;24.87;42.32
31337;BME280;22846;42.654;23.314;2023-02-13T05:39:13;96283.06;;;24.92;42.10
31337;BME280;22846;42.654;23.314;2023-02-13T05:41:39;96274.91;;;24.89;40.02
31337;BME280;22846;42.654;23.314;2023-02-13T05:44:05;96280.81;;;24.84;41.19
31337;BME280;22846;42.654;23.314;2023-02-13T05:46:30;96281.25;;;24.72;40.53
31337;BME280;22846;42.654;23.314;2023-02-13T05:48:55;96284.06;;;24.62;40.45
31337;BME280;22846;42.654;23.314;2023-02-13T05:51:21;96285.25;;;24.50;41.01
31337;BME280;22846;42.654;23.314;2023-02-13T05:53:46;96277.91;;;24.37;41.59
31337;BME280;22846;42.654;23.314;2023-02-13T05:56:12;96280.66;;;24.26;41.88
31337;BME280;22846;42.654;23.314;2023-02-13T05:58:37;96275.25;;;24.12;41.45
31337;BME280;22846;42.654;23.314;2023-02-13T06:01:03;96285.81;;;24.07;41.54
31337;BME280;22846;42.654;23.314;2023-02-13T06:03:29;96286.22;;;23.98;41.84
31337;BME280;22846;42.654;23.314;2023-02-13T06:05:55;96296.38;;;23.91;42.13
31337;BME280;22846;42.654;23.314;2023-02-13T06:08:21;96292.50;;;23.82;42.30
31337;BME280;22846;42.654;23.314;2023-02-13T06:10:47;96307.31;;;23.77;42.52
31337;BME280;22846;42.654;23.314;2023-02-13T06:13:13;96299.91;;;23.71;42.43
31337;BME280;22846;42.654;23.314;2023-02-13T06:15:39;96297.97;;;23.64;42.45
31337;BME280;22846;42.654;23.314;2023-02-13T06:18:05;96299.91;;;23.60;42.52
31337;BME280;22846;42.654;23.314;2023-02-13T06:20:31;96305.00;;;23.55;42.85
31337;BME280;22846;42.654;23.314;2023-02-13T06:22:56;96307.34;;;23.49;42.82
31337;BME280;22846;42.654;23.314;2023-02-13T06:25:22;96292.91;;;23.35;42.53
31337;BME280;22846;42.654;23.314;2023-02-13T06:27:47;96312.00;;;23.42;42.80
31337;BME280;22846;42.654;23.314;2023-02-13T06:30:13;96308.50;;;23.38;42.68
31337;BME280;22846;42.654;23.314;2023-02-13T06:32:39;96309.66;;;23.33;42.72
31337;BME280;22846;42.654;23.314;2023-02-13T06:35:05;96310.47;;;23.27;42.85
31337;BME280;22846;42.654;23.314;2023-02-13T06:37:31;96313.19;;;23.27;42.85
31337;BME280;22846;42.654;23.314;2023-02-13T06:39:56;96307.34;;;23.25;42.81
31337;BME280;22846;42.654;23.314;2023-02-13T06:42:22;96308.09;;;23.15;42.63
31337;BME280;22846;42.654;23.314;2023-02-13T06:44:47;96319.41;;;23.17;42.75
31337;BME280;22846;42.654;23.314;2023-02-13T06:47:13;96310.44;;;23.13;42.73
31337;BME280;22846;42.654;23.314;2023-02-13T06:49:38;96310.44;;;23.09;42.67
31337;BME280;22846;42.654;23.314;2023-02-13T06:52:03;96317.84;;;23.09;43.14
31337;BME280;22846;42.654;23.314;2023-02-13T06:54:29;96319.00;;;23.08;42.81
31337;BME280;22846;42.654;23.314;2023-02-13T06:56:54;96322.91;;;23.07;43.09
31337;BME280;22846;42.654;23.314;2023-02-13T06:59:20;96311.97;;;23.00;43.05
31337;BME280;22846;42.654;23.314;2023-02-13T07:01:45;96318.22;;;23.04;43.10
31337;BME280;22846;42.654;23.314;2023-02-13T07:04:11;96317.00;;;23.02;42.83
31337;BME280;22846;42.654;23.314;2023-02-13T07:06:36;96317.41;;;23.00;43.00
31337;BME280;22846;42.654;23.314;2023-02-13T07:09:02;96317.00;;;22.98;43.11
31337;BME280;22846;42.654;23.314;2023-02-13T07:11:28;96311.94;;;22.97;43.13
31337;BME280;22846;42.654;23.314;2023-02-13T07:13:53;96304.13;;;22.95;42.90
31337;BME280;22846;42.654;23.314;2023-02-13T07:16:19;96302.22;;;22.92;43.15
31337;BME280;22846;42.654;23.314;2023-02-13T07:18:44;96317.00;;;22.91;43.23
31337;BME280;22846;42.654;23.314;2023-02-13T07:21:10;96295.53;;;22.76;43.07
31337;BME280;22846;42.654;23.314;2023-02-13T07:23:35;96315.84;;;22.89;43.00
31337;BME280;22846;42.654;23.314;2023-02-13T07:26:01;96320.50;;;22.88;42.87
31337;BME280;22846;42.654;23.314;2023-02-13T07:28:28;96322.81;;;22.86;42.77
31337;BME280;22846;42.654;23.314;2023-02-13T07:30:54;96325.19;;;22.84;43.22
31337;BME280;22846;42.654;23.314;2023-02-13T07:33:20;96320.88;;;22.83;43.23
31337;BME280;22846;42.654;23.314;2023-02-13T07:35:50;96328.25;;;22.83;42.75
31337;BME280;22846;42.654;23.314;2023-02-13T07:38:17;96327.91;;;22.81;42.79
31337;BME280;22846;42.654;23.314;2023-02-13T07:40:43;96326.34;;;22.80;42.87
31337;BME280;22846;42.654;23.314;2023-02-13T07:43:09;96318.53;;;22.78;43.01
31337;BME280;22846;42.654;23.314;2023-02-13T07:45:34;96325.94;;;22.78;42.95
31337;BME280;22846;42.654;23.314;2023-02-13T07:47:59;96321.63;;;22.77;42.90
31337;BME280;22846;42.654;23.314;2023-02-13T07:50:27;96329.03;;;22.76;42.76
31337;BME280;22846;42.654;23.314;2023-02-13T07:52:59;96319.31;;;22.72;42.94
31337;BME280;22846;42.654;23.314;2023-02-13T07:55:26;96330.56;;;22.74;42.87
31337;BME280;22846;42.654;23.314;2023-02-13T07:57:52;96325.53;;;22.72;42.92
31337;BME280;22846;42.654;23.314;2023-02-13T08:00:18;96323.97;;;22.71;43.08
31337;BME280;22846;42.654;23.314;2023-02-13T08:02:44;96317.34;;;22.69;43.04
31337;BME280;22846;42.654;23.314;2023-02-13T08:05:09;96322.03;;;22.68;43.05
31337;BME280;22846;42.654;23.314;2023-02-13T08:07:35;96317.34;;;22.69;42.91
31337;BME280;22846;42.654;23.314;2023-02-13T08:10:01;96325.91;;;22.67;42.72
31337;BME280;22846;42.654;23.314;2023-02-13T08:12:46;96319.66;;;22.67;43.08
31337;BME280;22846;42.654;23.314;2023-02-13T08:15:13;96320.81;;;22.66;43.00
31337;BME280;22846;42.654;23.314;2023-02-13T08:17:38;96314.97;;;22.60;43.07
31337;BME280;22846;42.654;23.314;2023-02-13T08:20:05;96321.22;;;22.64;42.86
31337;BME280;22846;42.654;23.314;2023-02-13T08:22:34;96319.25;;;22.61;42.81
31337;BME280;22846;42.654;23.314;2023-02-13T08:25:00;96319.66;;;22.63;42.79
31337;BME280;22846;42.654;23.314;2023-02-13T08:27:26;96327.41;;;22.61;42.71
31337;BME280;22846;42.654;23.314;2023-02-13T08:29:55;96314.19;;;22.60;42.64
31337;BME280;22846;42.654;23.314;2023-02-13T08:32:21;96319.25;;;22.61;42.99
31337;BME280;22846;42.654;23.314;2023-02-13T08:34:47;96316.53;;;22.58;42.86
31337;BME280;22846;42.654;23.314;2023-02-13T08:37:12;96327.06;;;22.59;43.03
31337;BME280;22846;42.654;23.314;2023-02-13T08:39:37;96323.53;;;22.59;43.07
31337;BME280;22846;42.654;23.314;2023-02-13T08:42:03;96312.63;;;22.55;42.86
31337;BME280;22846;42.654;23.314;2023-02-13T08:44:28;96314.19;;;22.56;42.88
31337;BME280;22846;42.654;23.314;2023-02-13T08:46:54;96302.44;;;22.38;42.69
31337;BME280;22846;42.654;23.314;2023-02-13T08:49:20;96322.75;;;22.55;42.73
31337;BME280;22846;42.654;23.314;2023-02-13T08:51:45;96323.53;;;22.55;43.00
31337;BME280;22846;42.654;23.314;2023-02-13T08:54:11;96320.38;;;22.50;42.93
31337;BME280;22846;42.654;23.314;2023-02-13T08:56:36;96326.63;;;22.50;42.73
31337;BME280;22846;42.654;23.314;2023-02-13T08:59:02;96320.38;;;22.46;42.81
31337;BME280;22846;42.654;23.314;2023-02-13T09:01:27;96309.84;;;22.41;42.81
31337;BME280;22846;42.654;23.314;2023-02-13T09:03:54;96322.72;;;22.51;42.80
31337;BME280;22846;42.654;23.314;2023-02-13T09:06:19;96328.16;;;22.51;42.93
31337;BME280;22846;42.654;23.314;2023-02-13T09:08:45;96320.78;;;22.48;42.69
31337;BME280;22846;42.654;23.314;2023-02-13T09:11:10;96320.38;;;22.50;42.77
31337;BME280;22846;42.654;23.314;2023-02-13T09:13:36;96327.78;;;22.49;42.86
31337;BME280;22846;42.654;23.314;2023-02-13T09:16:04;96325.44;;;22.48;42.73
31337;BME280;22846;42.654;23.314;2023-02-13T09:18:30;96327.00;;;22.49;42.66
31337;BME280;22846;42.654;23.314;2023-02-13T09:20:59;96322.69;;;22.48;42.87
31337;BME280;22846;42.654;23.314;2023-02-13T09:23:25;96316.09;;;22.49;42.77
31337;BME280;22846;42.654;23.314;2023-02-13T09:25:51;96318.47;;;22.50;42.75
31337;BME280;22846;42.654;23.314;2023-02-13T09:28:17;96320.78;;;22.52;42.91
31337;BME280;22846;42.654;23.314;2023-02-13T09:30:42;96310.28;;;22.47;42.75
31337;BME280;22846;42.654;23.314;2023-02-13T09:33:09;96314.94;;;22.53;42.97
31337;BME280;22846;42.654;23.314;2023-02-13T09:35:36;96309.13;;;22.55;43.13
31337;BME280;22846;42.654;23.314;2023-02-13T09:38:01;96299.75;;;22.56;42.24
31337;BME280;22846;42.654;23.314;2023-02-13T09:40:35;96284.19;;;22.46;41.47
31337;BME280;22846;42.654;23.314;2023-02-13T09:43:15;96299.41;;;22.61;41.91
31337;BME280;22846;42.654;23.314;2023-02-13T09:45:43;96296.28;;;22.62;41.69
31337;BME280;22846;42.654;23.314;2023-02-13T09:48:23;96291.25;;;22.64;42.42
31337;BME280;22846;42.654;23.314;2023-02-13T09:50:52;96294.78;;;22.68;42.39
31337;BME280;22846;42.654;23.314;2023-02-13T09:53:22;96290.47;;;22.71;42.17
31337;BME280;22846;42.654;23.314;2023-02-13T09:56:02;96284.63;;;22.69;42.44
31337;BME280;22846;42.654;23.314;2023-02-13T09:58:47;96281.13;;;22.68;42.51
31337;BME280;22846;42.654;23.314;2023-02-13T10:01:30;96277.25;;;22.73;41.26
31337;BME280;22846;42.654;23.314;2023-02-13T10:04:15;96283.88;;;22.75;41.92
31337;BME280;22846;42.654;23.314;2023-02-13T10:06:47;96272.19;;;22.78;42.31
31337;BME280;22846;42.654;23.314;2023-02-13T10:09:28;96266.38;;;22.94;42.19
31337;BME280;22846;42.654;23.314;2023-02-13T10:15:23;96259.00;;;23.39;41.48
31337;BME280;22846;42.654;23.314;2023-02-13T10:18:04;96258.22;;;23.56;41.19
31337;BME280;22846;42.654;23.314;2023-02-13T10:20:36;96248.06;;;23.67;40.80
31337;BME280;22846;42.654;23.314;2023-02-13T10:28:47;96241.34;;;23.99;40.43
31337;BME280;22846;42.654;23.314;2023-02-13T10:31:38;96228.47;;;24.03;40.26
31337;BME280;22846;42.654;23.314;2023-02-13T10:34:10;96233.47;;;24.15;39.98
31337;BME280;22846;42.654;23.314;2023-02-13T10:36:39;96223.72;;;24.21;40.08
31337;BME280;22846;42.654;23.314;2023-02-13T10:45:02;96216.19;;;24.43;39.50
31337;BME280;22846;42.654;23.314;2023-02-13T10:47:45;96211.91;;;24.45;39.54
31337;BME280;22846;42.654;23.314;2023-02-13T10:58:42;96201.66;;;24.60;39.41
31337;BME280;22846;42.654;23.314;2023-02-13T11:01:40;96203.97;;;24.61;39.38
31337;BME280;22846;42.654;23.314;2023-02-13T11:04:14;96189.94;;;24.63;39.25
31337;BME280;22846;42.654;23.314;2023-02-13T11:06:45;96182.06;;;24.68;39.31
31337;BME280;22846;42.654;23.314;2023-02-13T11:09:13;96183.22;;;24.71;39.22
31337;BME280;22846;42.654;23.314;2023-02-13T11:11:40;96182.03;;;24.75;39.44
31337;BME280;22846;42.654;23.314;2023-02-13T11:19:32;96168.66;;;24.87;39.13
31337;BME280;22846;42.654;23.314;2023-02-13T11:22:12;96169.38;;;24.91;38.85
31337;BME280;22846;42.654;23.314;2023-02-13T11:24:41;96161.56;;;24.93;38.68
31337;BME280;22846;42.654;23.314;2023-02-13T11:27:09;96151.75;;;24.96;38.90
31337;BME280;22846;42.654;23.314;2023-02-13T11:29:54;96140.44;;;24.94;39.00
31337;BME280;22846;42.654;23.314;2023-02-13T11:32:23;96134.16;;;24.97;39.15
31337;BME280;22846;42.654;23.314;2023-02-13T11:34:49;96131.75;;;25.06;38.97
31337;BME280;22846;42.654;23.314;2023-02-13T11:37:24;96130.56;;;25.07;38.86
31337;BME280;22846;42.654;23.314;2023-02-13T11:39:53;96122.72;;;25.09;38.62
31337;BME280;22846;42.654;23.314;2023-02-13T11:42:29;96124.66;;;25.12;38.71
31337;BME280;22846;42.654;23.314;2023-02-13T11:45:13;96120.00;;;25.12;38.51
31337;BME280;22846;42.654;23.314;2023-02-13T11:47:44;96111.78;;;25.12;38.58
31337;BME280;22846;42.654;23.314;2023-02-13T11:50:31;96107.84;;;25.17;38.72
31337;BME280;22846;42.654;23.314;2023-02-13T11:53:03;96098.03;;;25.19;38.71
31337;BME280;22846;42.654;23.314;2023-02-13T11:55:33;96089.00;;;25.22;38.43
31337;BME280;22846;42.654;23.314;2023-02-13T11:58:22;96088.59;;;25.24;38.64
31337;BME280;22846;42.654;23.314;2023-02-13T12:00:48;96078.03;;;25.26;38.60
31337;BME280;22846;42.654;23.314;2023-02-13T12:06:09;96072.88;;;25.31;38.61
31337;BME280;22846;42.654;23.314;2023-02-13T12:08:41;96072.84;;;25.35;38.56
31337;BME280;22846;42.654;23.314;2023-02-13T12:13:55;96068.09;;;25.39;38.26
31337;BME280;22846;42.654;23.314;2023-02-13T12:16:41;96054.00;;;25.40;38.19
31337;BME280;22846;42.654;23.314;2023-02-13T12:19:14;96057.94;;;25.39;38.20
31337;BME280;22846;42.654;23.314;2023-02-13T12:24:49;96059.34;;;25.51;38.08
31337;BME280;22846;42.654;23.314;2023-02-13T12:30:21;96059.72;;;25.53;38.41
31337;BME280;22846;42.654;23.314;2023-02-13T12:35:38;96057.00;;;25.49;38.28
31337;BME280;22846;42.654;23.314;2023-02-13T12:41:16;96050.72;;;25.52;38.04
31337;BME280;22846;42.654;23.314;2023-02-13T12:58:44;96026.03;;;25.56;37.98
31337;BME280;22846;42.654;23.314;2023-02-13T13:07:22;96014.97;;;25.62;37.94
31337;BME280;22846;42.654;23.314;2023-02-13T13:15:13;96015.41;;;25.61;38.20
31337;BME280;22846;42.654;23.314;2023-02-13T13:17:56;96012.28;;;25.59;38.29
31337;BME280;22846;42.654;23.314;2023-02-13T13:23:17;96002.84;;;25.63;37.76
31337;BME280;22846;42.654;23.314;2023-02-13T13:28:26;96005.50;;;25.70;38.33
31337;BME280;22846;42.654;23.314;2023-02-13T13:30:54;95997.31;;;25.67;37.97
31337;BME280;22846;42.654;23.314;2023-02-13T13:33:24;95999.28;;;25.66;37.97
31337;BME280;22846;42.654;23.314;2023-02-13T13:47:39;95989.00;;;25.77;37.73
31337;BME280;22846;42.654;23.314;2023-02-13T13:49:57;95993.28;;;25.78;37.52
31337;BME280;22846;42.654;23.314;2023-02-13T13:52:28;95991.75;;;25.77;38.02
31337;BME280;22846;42.654;23.314;2023-02-13T13:54:55;95985.09;;;25.78;38.05
31337;BME280;22846;42.654;23.314;2023-02-13T14:05:07;95988.78;;;25.91;38.17
31337;BME280;22846;42.654;23.314;2023-02-13T14:07:37;95983.72;;;25.90;37.55
31337;BME280;22846;42.654;23.314;2023-02-13T14:10:04;95991.53;;;25.91;37.56
31337;BME280;22846;42.654;23.314;2023-02-13T14:14:57;95977.25;;;26.03;37.17
31337;BME280;22846;42.654;23.314;2023-02-13T14:20:48;95974.78;;;26.12;36.89
31337;BME280;22846;42.654;23.314;2023-02-13T14:26:24;95969.81;;;26.27;36.61
31337;BME280;22846;42.654;23.314;2023-02-13T14:31:37;95956.34;;;26.39;36.77
31337;BME280;22846;42.654;23.314;2023-02-13T14:39:28;95956.91;;;26.50;36.57
31337;BME280;22846;42.654;23.314;2023-02-13T14:41:59;95950.59;;;26.53;36.79
31337;BME280;22846;42.654;23.314;2023-02-13T14:44:33;95959.88;;;26.59;37.18
31337;BME280;22846;42.654;23.314;2023-02-13T14:47:02;95962.63;;;26.59;37.09
31337;BME280;22846;42.654;23.314;2023-02-13T14:49:31;95965.34;;;26.59;36.54
31337;BME280;22846;42.654;23.314;2023-02-13T14:52:02;95959.09;;;26.58;36.45
31337;BME280;22846;42.654;23.314;2023-02-13T14:57:03;95954.38;;;26.59;36.52
31337;BME280;22846;42.654;23.314;2023-02-13T14:59:33;95957.13;;;26.59;36.67
31337;BME280;22846;42.654;23.314;2023-02-13T15:02:24;95952.91;;;26.54;36.25
31337;BME280;22846;42.654;23.314;2023-02-13T15:05:09;95957.75;;;26.47;36.36
31337;BME280;22846;42.654;23.314;2023-02-13T15:07:44;95954.34;;;26.40;36.25
31337;BME280;22846;42.654;23.314;2023-02-13T15:12:36;95954.28;;;26.20;36.86
31337;BME280;22846;42.654;23.314;2023-02-13T15:15:37;95955.59;;;26.12;36.96
31337;BME280;22846;42.654;23.314;2023-02-13T15:18:25;95953.78;;;26.02;37.01
31337;BME280;22846;42.654;23.314;2023-02-13T15:20:54;95951.16;;;25.95;37.38
31337;BME280;22846;42.654;23.314;2023-02-13T15:23:24;95956.72;;;25.88;37.24
31337;BME280;22846;42.654;23.314;2023-02-13T15:26:20;95966.16;;;25.87;37.53
31337;BME280;22846;42.654;23.314;2023-02-13T15:29:12;95966.63;;;25.82;37.43
31337;BME280;22846;42.654;23.314;2023-02-13T15:31:40;95960.00;;;25.80;37.44
31337;BME280;22846;42.654;23.314;2023-02-13T15:36:51;95961.25;;;25.75;37.48
31337;BME280;22846;42.654;23.314;2023-02-13T15:39:22;95971.44;;;25.71;37.59
31337;BME280;22846;42.654;23.314;2023-02-13T15:41:50;95966.81;;;25.68;37.82
31337;BME280;22846;42.654;23.314;2023-02-13T15:44:27;95969.94;;;25.67;38.00
31337;BME280;22846;42.654;23.314;2023-02-13T15:46:56;95969.28;;;25.60;37.67
31337;BME280;22846;42.654;23.314;2023-02-13T15:49:26;95977.88;;;25.58;38.08
31337;BME280;22846;42.654;23.314;2023-02-13T15:52:07;95967.34;;;25.57;38.27